Fort McPherson, Canada
Current Conditions -  °F | °C
As of 7:00 PM on Wednesday 17 Dec 2014 (Local Time) from CYKD Reporting Station
Ice Pellets Ice Pellets  
Wind Chill: -2°   Ceiling: 1200
Heat Index: -2°   Visibility: 15mi
Dew Point: -6°   Wind: 0mph
Humidity: 85%   Direction: NA
Pressure: 29.78"   Gusts: NA
Location:  67.44°N, 134.88°W
Report Text: CYKD 180200Z 00000KT 15SM IC OVC012 M19/M21 A2978 RMK SC8 -17.7/-18.8/TR/31 MUCH LOOSE/LAST OBS/NXT 181400Z SLP084
Loading
Personal Weather Stations






























Interactive Weather Map New forecast layout! Learn more

10-Day Weather Forecast

Advertisements
Track Severe Weather on mobile